Time;durP1;ratioP1;P1;durP2;ratioP2;P2;SDS_P1;SDS_P2;PMS_P1;PMS_P2;Temp;Humidity;BMP_temperature;BMP_pressure;BME280_temperature;BME280_humidity;BME280_pressure;Samples;Min_cycle;Max_cycle;Signal;HPM_P1;HPM_P2
2022/06/05 00:04:51;;;;;;;11.20;4.82;;;;;;;19.80;75.51;95818.13;10313545;28;98919;-68
2022/06/05 00:10:02;;;;;;;12.30;4.70;;;;;;;19.67;76.02;95815.59;10315697;28;97668;-66
2022/06/05 00:15:06;;;;;;;10.18;4.80;;;;;;;19.61;76.91;95818.06;10318591;28;97071;-69
2022/06/05 00:20:11;;;;;;;9.73;4.83;;;;;;;19.67;77.13;95807.66;10320330;28;97631;-67
2022/06/05 00:25:15;;;;;;;11.23;5.10;;;;;;;19.63;76.78;95834.56;10318674;28;98462;-66
2022/06/05 00:30:23;;;;;;;9.73;4.57;;;;;;;19.50;77.99;95844.44;10312099;28;99074;-68
2022/06/05 00:35:31;;;;;;;14.57;4.38;;;;;;;19.51;77.74;95846.88;10317629;28;98408;-69
2022/06/05 00:40:48;;;;;;;7.30;3.15;;;;;;;19.48;76.92;95870.34;10309278;28;97762;-66
2022/06/05 00:45:52;;;;;;;8.13;3.20;;;;;;;19.59;76.06;95865.19;10318367;28;98307;-67
2022/06/05 00:50:55;;;;;;;9.95;3.53;;;;;;;19.61;75.14;95889.63;10324056;28;100596;-66
2022/06/05 00:55:59;;;;;;;9.23;3.35;;;;;;;19.58;76.25;95884.75;10314208;28;97077;-73
2022/06/05 01:01:03;;;;;;;8.90;3.53;;;;;;;19.57;75.86;95893.69;10302080;28;97012;-66
2022/06/05 01:06:06;;;;;;;8.73;3.40;;;;;;;19.35;76.91;95900.34;10325901;28;96786;-70
2022/06/05 01:11:18;;;;;;;4.97;3.05;;;;;;;19.41;77.16;95894.22;10304171;28;96985;-70
2022/06/05 01:16:27;;;;;;;9.55;3.20;;;;;;;19.39;76.50;95897.06;10315998;28;96984;-68
2022/06/05 01:21:42;;;;;;;7.43;3.08;;;;;;;19.33;77.45;95897.09;10324339;28;98042;-69
2022/06/05 01:26:50;;;;;;;5.65;3.22;;;;;;;19.13;77.52;95905.94;10297190;28;97020;-68
2022/06/05 01:31:56;;;;;;;13.13;3.58;;;;;;;19.29;76.88;95895.91;10312733;28;98689;-68
2022/06/05 01:37:05;;;;;;;6.45;3.28;;;;;;;19.16;77.87;95892.28;10306834;28;96951;-68
2022/06/05 01:42:14;;;;;;;9.93;4.45;;;;;;;19.19;78.04;95923.66;10305366;28;98262;-69
2022/06/05 01:47:22;;;;;;;11.05;4.00;;;;;;;19.20;78.07;95925.25;10316603;28;98322;-68
2022/06/05 01:52:29;;;;;;;9.93;4.18;;;;;;;19.22;77.71;95928.50;10322962;28;96980;-68
2022/06/05 01:57:35;;;;;;;10.52;3.50;;;;;;;19.19;78.20;95939.53;10316128;28;97715;-68
2022/06/05 02:02:44;;;;;;;9.35;3.70;;;;;;;19.16;78.59;95925.91;10314033;28;98281;-68
2022/06/05 02:07:50;;;;;;;12.38;4.38;;;;;;;19.06;78.61;95929.78;10316809;28;97760;-68
2022/06/05 02:12:55;;;;;;;10.60;4.72;;;;;;;19.00;79.26;95921.84;10316707;28;97007;-69
2022/06/05 02:17:58;;;;;;;11.95;4.93;;;;;;;19.04;78.98;95912.50;10316678;28;96963;-68
2022/06/05 02:23:04;;;;;;;14.05;5.15;;;;;;;19.06;78.66;95924.50;10322171;28;97831;-68
2022/06/05 02:28:12;;;;;;;8.88;4.60;;;;;;;19.03;79.07;95918.81;10314064;28;98553;-69
2022/06/05 02:33:24;;;;;;;11.50;4.90;;;;;;;19.06;78.63;95905.16;10318699;28;98149;-68
2022/06/05 02:38:41;;;;;;;12.70;4.60;;;;;;;19.09;78.91;95915.34;10313175;28;97411;-69
2022/06/05 02:49:16;;;;;;;10.18;4.25;;;;;;;19.04;79.14;95926.53;10321733;28;100283;-68
2022/06/05 02:54:20;;;;;;;17.27;4.10;;;;;;;19.08;78.85;95918.19;10317071;28;98656;-68
2022/06/05 02:59:25;;;;;;;11.88;5.13;;;;;;;19.01;78.44;95915.56;10320900;28;97757;-73
2022/06/05 03:04:28;;;;;;;8.98;3.80;;;;;;;19.03;78.66;95910.88;10321461;28;97740;-68
2022/06/05 03:09:31;;;;;;;9.77;4.30;;;;;;;19.08;78.34;95895.16;10313575;28;98005;-69
2022/06/05 03:14:35;;;;;;;13.07;6.53;;;;;;;19.04;78.36;95913.31;10316892;28;97597;-73
2022/06/05 03:19:38;;;;;;;14.45;4.93;;;;;;;19.06;78.39;95918.41;10326265;28;96928;-70
2022/06/05 03:24:41;;;;;;;8.30;4.28;;;;;;;19.05;78.95;95922.06;10317775;28;97235;-68
2022/06/05 03:29:45;;;;;;;10.88;4.97;;;;;;;18.84;79.42;95926.56;10312103;28;97116;-67
2022/06/05 03:34:48;;;;;;;16.25;5.28;;;;;;;18.77;79.72;95928.41;10319350;28;97448;-67
2022/06/05 03:39:51;;;;;;;15.70;6.90;;;;;;;18.74;79.46;95912.97;10322912;28;98585;-68
2022/06/05 03:44:55;;;;;;;15.15;5.07;;;;;;;18.75;79.86;95914.56;10321494;28;97022;-67
2022/06/05 03:49:58;;;;;;;13.00;6.40;;;;;;;18.86;79.55;95918.44;10316785;28;97638;-70
2022/06/05 03:55:01;;;;;;;11.38;4.45;;;;;;;18.93;79.02;95923.72;10310621;28;97843;-68
2022/06/05 04:00:06;;;;;;;12.30;5.68;;;;;;;19.00;79.41;95929.81;10310769;28;96849;-74
2022/06/05 04:05:13;;;;;;;13.40;5.95;;;;;;;18.95;80.08;95934.91;10322805;28;98630;-69
2022/06/05 04:10:17;;;;;;;10.35;5.63;;;;;;;19.04;79.38;95947.72;10320718;28;97658;-68
2022/06/05 04:15:22;;;;;;;9.98;5.45;;;;;;;19.04;78.96;95952.22;10328420;28;96864;-71
2022/06/05 04:20:25;;;;;;;12.00;5.82;;;;;;;19.05;79.63;95953.81;10325443;28;96747;-68
2022/06/05 04:25:28;;;;;;;12.80;5.40;;;;;;;19.12;79.46;95959.09;10323464;28;96822;-69
2022/06/05 04:30:36;;;;;;;14.07;6.63;;;;;;;18.95;79.29;95953.44;10319977;28;101105;-72
2022/06/05 04:35:39;;;;;;;20.48;11.32;;;;;;;18.88;79.32;95933.09;10321466;28;98052;-68
2022/06/05 04:40:42;;;;;;;13.25;4.85;;;;;;;18.96;79.70;95933.91;10311898;28;96996;-66
2022/06/05 04:45:46;;;;;;;11.63;5.82;;;;;;;19.05;79.53;95914.94;10305562;28;96799;-72
2022/06/05 04:50:49;;;;;;;13.57;4.32;;;;;;;19.17;77.89;95915.06;10321029;28;102788;-68
2022/06/05 04:55:52;;;;;;;10.05;4.70;;;;;;;19.10;78.42;95924.09;10309226;28;96921;-68
2022/06/05 05:00:56;;;;;;;10.10;4.10;;;;;;;19.16;77.40;95921.41;10318873;28;98989;-70
2022/06/05 05:05:59;;;;;;;12.70;4.32;;;;;;;19.16;77.80;95923.25;10319644;28;97039;-68
2022/06/05 05:11:02;;;;;;;8.32;3.95;;;;;;;19.06;77.24;95928.97;10321069;28;97308;-68
2022/06/05 05:16:06;;;;;;;12.27;4.90;;;;;;;19.02;77.23;95933.88;10317172;28;97066;-68
2022/06/05 05:21:11;;;;;;;11.88;5.18;;;;;;;18.92;77.60;95945.94;10304751;28;97789;-69
2022/06/05 05:26:17;;;;;;;12.73;5.07;;;;;;;18.96;77.77;95955.06;10320491;28;99733;-68
2022/06/05 05:31:24;;;;;;;8.68;4.68;;;;;;;19.09;78.39;95965.63;10327512;28;97039;-68
2022/06/05 05:36:29;;;;;;;12.50;5.25;;;;;;;19.31;77.93;95968.00;10317662;28;96758;-68
2022/06/05 05:46:54;;;;;;;11.05;4.75;;;;;;;19.69;77.64;95986.59;10314866;28;97202;-68
2022/06/05 05:51:57;;;;;;;13.93;5.30;;;;;;;19.75;76.76;95998.19;10324695;28;97891;-68
2022/06/05 05:57:00;;;;;;;8.88;4.28;;;;;;;19.74;77.08;96025.72;10310013;28;97181;-68
2022/06/05 06:02:06;;;;;;;10.38;4.70;;;;;;;19.71;78.11;96031.44;10319855;28;96693;-69
2022/06/05 06:07:09;;;;;;;10.25;4.38;;;;;;;19.76;77.47;96007.75;10323809;28;96923;-69
2022/06/05 06:12:12;;;;;;;10.30;3.87;;;;;;;19.89;76.05;96002.44;10314719;28;97709;-68
2022/06/05 06:17:17;;;;;;;10.83;4.40;;;;;;;20.05;75.91;95985.22;10311247;28;97554;-68
2022/06/05 06:22:21;;;;;;;12.27;4.10;;;;;;;20.16;76.26;95986.34;10320462;28;97244;-69
2022/06/05 06:27:24;;;;;;;9.50;2.80;;;;;;;20.48;72.47;95981.84;10302631;28;99900;-70
2022/06/05 06:32:29;;;;;;;11.10;3.70;;;;;;;20.65;72.63;95990.09;10316742;28;98289;-68
2022/06/05 06:37:32;;;;;;;8.63;3.95;;;;;;;20.85;73.36;95978.50;10318731;28;96941;-69
2022/06/05 06:42:35;;;;;;;8.13;4.28;;;;;;;21.04;74.10;95988.13;10306339;28;96986;-69
2022/06/05 06:47:39;;;;;;;15.48;4.78;;;;;;;21.34;73.43;95992.69;10316290;28;96955;-69
2022/06/05 06:52:43;;;;;;;4.55;1.90;;;;;;;21.50;68.26;96002.75;10299954;28;96778;-68
2022/06/05 06:57:47;;;;;;;10.10;3.00;;;;;;;21.63;67.98;96001.00;10312433;28;97253;-69
2022/06/05 07:02:52;;;;;;;5.88;2.00;;;;;;;21.59;66.89;96005.09;10326079;28;96927;-71
2022/06/05 07:07:55;;;;;;;7.18;2.17;;;;;;;21.42;66.20;96011.00;10327870;28;100441;-68
2022/06/05 07:12:58;;;;;;;5.50;2.25;;;;;;;21.42;66.53;95981.78;10303372;28;97408;-69
2022/06/05 07:18:03;;;;;;;5.97;2.35;;;;;;;21.78;65.37;95985.47;10315895;28;97079;-68
2022/06/05 07:23:07;;;;;;;2.88;1.40;;;;;;;21.90;63.57;95995.31;10307225;28;96761;-69
2022/06/05 07:28:10;;;;;;;4.78;1.42;;;;;;;21.73;62.08;96017.22;10312421;28;97041;-71
2022/06/05 07:33:14;;;;;;;2.92;1.02;;;;;;;21.44;61.16;96040.84;10314187;28;96870;-69
2022/06/05 07:38:17;;;;;;;1.90;0.80;;;;;;;20.95;60.35;96063.78;10323356;28;96959;-73
2022/06/05 07:43:21;;;;;;;6.93;1.58;;;;;;;20.28;64.15;96031.59;10322193;28;97699;-68
2022/06/05 07:48:25;;;;;;;5.88;1.10;;;;;;;19.45;67.76;96022.56;10323731;28;98124;-69
2022/06/05 07:58:48;;;;;;;4.30;1.55;;;;;;;19.59;71.42;95962.38;10326850;28;97208;-69
2022/06/05 08:04:12;;;;;;;7.75;1.60;;;;;;;19.92;71.28;95964.91;10322348;28;96908;-70
2022/06/05 08:09:15;;;;;;;4.55;1.40;;;;;;;20.25;69.88;95989.56;10327343;28;97139;-69
2022/06/05 08:14:18;;;;;;;4.13;1.17;;;;;;;20.06;70.33;96045.19;10308543;28;98563;-68
2022/06/05 08:19:24;;;;;;;3.75;1.20;;;;;;;20.18;70.31;96037.34;10303461;28;96828;-68
2022/06/05 08:24:27;;;;;;;1.92;1.13;;;;;;;20.45;69.79;96015.97;10315859;28;97079;-69
2022/06/05 08:29:30;;;;;;;3.20;1.40;;;;;;;20.82;69.02;96016.09;10311048;28;97089;-69
2022/06/05 08:34:35;;;;;;;4.23;1.20;;;;;;;20.90;67.61;96013.19;10315193;28;96852;-68
2022/06/05 08:45:10;;;;;;;3.03;1.10;;;;;;;20.91;65.57;96010.31;10311313;28;96941;-68
2022/06/05 08:50:28;;;;;;;3.03;1.15;;;;;;;21.07;65.19;96011.59;10299665;28;96886;-68
2022/06/05 08:55:35;;;;;;;2.78;0.70;;;;;;;21.12;65.13;96011.75;10313817;28;100463;-68
2022/06/05 09:00:43;;;;;;;4.20;1.10;;;;;;;20.83;65.34;96012.44;10313110;28;96919;-69
2022/06/05 09:05:50;;;;;;;1.50;1.10;;;;;;;20.64;64.23;96004.38;10301500;28;96934;-68
2022/06/05 09:11:01;;;;;;;3.67;1.30;;;;;;;20.43;65.82;96018.84;10309746;28;97967;-71
2022/06/05 09:16:13;;;;;;;4.38;1.45;;;;;;;20.19;67.40;96017.75;10311690;28;97676;-70
2022/06/05 09:21:24;;;;;;;4.13;1.30;;;;;;;19.94;67.43;96007.91;10316612;28;98099;-68
2022/06/05 09:26:42;;;;;;;2.22;1.10;;;;;;;19.77;67.27;95994.31;10322557;28;96953;-68
2022/06/05 09:32:05;;;;;;;3.03;1.20;;;;;;;19.78;68.73;95997.75;10320855;28;98624;-68
2022/06/05 09:37:15;;;;;;;3.42;1.40;;;;;;;19.79;68.82;95980.84;10314158;28;97771;-68
2022/06/05 09:42:39;;;;;;;2.47;1.17;;;;;;;19.75;69.95;95995.56;10316300;28;97011;-71
2022/06/05 09:47:47;;;;;;;;;;;;;;;19.73;68.80;96045.28;10322344;28;98260;-68
2022/06/05 09:52:51;;;;;;;1.88;1.33;;;;;;;19.79;68.02;96058.50;10318674;28;98314;-69
2022/06/05 09:58:26;;;;;;;2.17;1.40;;;;;;;19.77;70.05;96084.41;10315958;28;98190;-72
2022/06/05 10:03:36;;;;;;;3.03;1.33;;;;;;;20.08;67.94;96074.94;10316005;28;98467;-69
2022/06/05 10:08:44;;;;;;;1.83;1.25;;;;;;;20.46;66.86;96086.56;10314433;28;97866;-69
2022/06/05 10:13:50;;;;;;;2.15;1.23;;;;;;;20.60;64.79;96081.97;10324062;28;97610;-69
2022/06/05 10:19:05;;;;;;;1.40;0.98;;;;;;;20.59;63.53;96086.47;10324479;28;99150;-69
2022/06/05 10:24:25;;;;;;;2.55;1.15;;;;;;;20.62;63.64;96086.06;10322354;28;97254;-69
2022/06/05 10:29:32;;;;;;;1.80;1.20;;;;;;;20.81;63.85;96088.81;10317087;28;98504;-69
2022/06/05 10:34:42;;;;;;;3.72;2.10;;;;;;;21.06;63.60;96097.59;10326331;28;102275;-74
2022/06/05 10:40:11;;;;;;;2.75;1.60;;;;;;;21.34;61.47;96095.53;10321024;28;100552;-68
2022/06/05 10:45:24;;;;;;;5.72;1.73;;;;;;;21.67;60.25;96103.19;10325165;28;97801;-68
2022/06/05 10:50:33;;;;;;;2.45;1.27;;;;;;;21.83;59.53;96118.56;10319183;28;98788;-75
2022/06/05 10:55:50;;;;;;;5.25;2.90;;;;;;;21.95;59.11;96126.59;10317782;28;96957;-70
2022/06/05 11:01:01;;;;;;;2.70;1.63;;;;;;;22.39;58.77;96131.81;10320823;28;97495;-73
2022/06/05 11:06:17;;;;;;;2.63;1.20;;;;;;;22.77;56.60;96128.84;10323996;28;98442;-69
2022/06/05 11:16:51;;;;;;;2.85;1.50;;;;;;;23.46;55.88;96115.03;10316294;28;98380;-69
2022/06/05 11:21:57;;;;;;;3.28;1.05;;;;;;;23.72;54.34;96107.59;10316864;28;98635;-70
2022/06/05 11:27:14;;;;;;;3.05;1.20;;;;;;;23.93;54.20;96104.34;10338607;28;97320;-69
2022/06/05 11:32:26;;;;;;;2.25;1.15;;;;;;;23.78;55.55;96103.22;10316691;28;97762;-69
2022/06/05 11:37:45;;;;;;;2.45;1.27;;;;;;;23.67;56.01;96083.50;10321267;28;96757;-69
2022/06/05 11:43:03;;;;;;;2.33;1.20;;;;;;;23.66;57.18;96079.22;10316039;28;98941;-68
2022/06/05 11:48:13;;;;;;;2.30;1.17;;;;;;;23.67;55.43;96070.16;10317683;28;96933;-69
2022/06/05 11:53:24;;;;;;;2.30;1.30;;;;;;;23.99;53.12;96065.22;10300022;28;100293;-68
2022/06/05 11:58:36;;;;;;;3.15;1.40;;;;;;;24.07;53.43;96056.88;10322016;28;98685;-69
2022/06/05 12:03:46;;;;;;;1.90;1.20;;;;;;;24.26;51.31;96054.84;10317854;28;97837;-69
2022/06/05 12:08:53;;;;;;;3.90;1.35;;;;;;;24.60;51.05;96054.88;10317374;28;97644;-70
2022/06/05 12:14:18;;;;;;;2.95;1.10;;;;;;;24.80;51.13;96043.75;10325006;28;98713;-73
2022/06/05 12:19:45;;;;;;;2.00;1.23;;;;;;;25.09;51.28;96051.69;10318973;28;96815;-71
2022/06/05 12:24:55;;;;;;;2.17;1.17;;;;;;;25.48;50.68;96049.03;10322492;28;97537;-73
2022/06/05 12:30:07;;;;;;;1.60;1.10;;;;;;;25.64;50.26;96052.75;10318955;28;99125;-71
2022/06/05 12:35:15;;;;;;;2.38;1.20;;;;;;;26.06;49.26;96040.69;10314763;28;97208;-71
2022/06/05 12:40:21;;;;;;;1.90;1.17;;;;;;;26.50;47.98;96033.41;10320159;28;98051;-71
2022/06/05 12:45:29;;;;;;;2.75;1.35;;;;;;;26.75;47.95;96029.31;10320375;28;96902;-72
2022/06/05 12:50:40;;;;;;;1.67;1.15;;;;;;;27.01;46.72;95998.19;10314931;28;96907;-71
2022/06/05 12:55:48;;;;;;;2.17;1.00;;;;;;;27.37;45.88;96027.91;10316712;28;96801;-71
2022/06/05 13:00:59;;;;;;;2.47;1.13;;;;;;;27.35;47.19;96046.09;10315859;28;101791;-70
2022/06/05 13:06:08;;;;;;;4.75;1.20;;;;;;;26.85;47.17;96108.97;10324845;28;97571;-70
2022/06/05 13:11:18;;;;;;;3.75;0.80;;;;;;;24.85;45.59;96121.34;10312969;28;98269;-70
2022/06/05 13:16:37;;;;;;;4.90;0.60;;;;;;;22.76;48.08;96094.44;10314878;28;96939;-75
2022/06/05 13:21:50;;;;;;;0.65;0.50;;;;;;;22.24;50.15;96092.28;10317155;28;97948;-72
2022/06/05 13:27:04;;;;;;;2.33;0.40;;;;;;;22.52;50.50;96077.59;10322544;28;97221;-70
2022/06/05 13:32:15;;;;;;;2.47;2.10;;;;;;;23.34;48.83;96068.94;10324048;28;98999;-71
2022/06/05 13:37:45;;;;;;;0.57;0.38;;;;;;;24.40;47.01;96084.72;10316431;28;98263;-68
2022/06/05 13:42:51;;;;;;;7.22;6.65;;;;;;;24.90;44.12;96085.84;10316567;28;97394;-71
2022/06/05 13:48:01;;;;;;;0.68;0.60;;;;;;;25.00;43.87;96075.34;10327672;28;96932;-69
2022/06/05 13:53:17;;;;;;;0.75;0.60;;;;;;;24.87;43.88;96076.47;10319853;28;100427;-69
2022/06/05 13:58:26;;;;;;;1.02;0.60;;;;;;;24.41;45.38;96075.66;10321891;28;98643;-69
2022/06/05 14:03:41;;;;;;;0.93;0.60;;;;;;;24.10;44.92;96085.75;10313984;28;98067;-69
2022/06/05 14:08:53;;;;;;;1.10;0.60;;;;;;;24.19;45.20;96093.38;10305534;28;97216;-69
2022/06/05 14:13:56;;;;;;;0.75;0.60;;;;;;;24.21;46.19;96094.78;10332360;28;97196;-72
2022/06/05 14:19:09;;;;;;;1.02;0.73;;;;;;;24.07;46.22;96080.06;10324022;28;99031;-69
2022/06/05 14:24:17;;;;;;;1.05;0.60;;;;;;;23.92;45.80;96094.69;10318760;28;97549;-70
2022/06/05 14:29:23;;;;;;;1.02;0.68;;;;;;;24.01;45.68;96084.47;10336701;28;98615;-69
2022/06/05 14:34:35;;;;;;;1.55;0.80;;;;;;;24.24;45.41;96093.47;10333573;28;97082;-70
2022/06/05 14:39:43;;;;;;;3.08;0.90;;;;;;;24.74;44.88;96095.44;10312069;28;97517;-68
2022/06/05 14:44:53;;;;;;;1.55;0.60;;;;;;;26.50;43.33;96086.16;10315815;28;98158;-68
2022/06/05 14:50:02;;;;;;;1.25;0.68;;;;;;;28.52;39.18;96079.13;10314466;28;97781;-68
2022/06/05 15:00:42;;;;;;;0.82;0.50;;;;;;;31.33;33.35;96079.25;10315499;28;98744;-68
2022/06/05 15:05:52;;;;;;;0.40;0.40;;;;;;;31.81;32.49;96119.03;10315466;28;96785;-69
2022/06/05 15:10:59;;;;;;;1.00;0.60;;;;;;;31.84;31.87;96131.97;10321637;28;97369;-70
2022/06/05 15:16:08;;;;;;;1.50;0.47;;;;;;;30.18;32.67;96144.16;10316343;28;97723;-68
2022/06/05 15:21:34;;;;;;;2.25;0.70;;;;;;;29.33;33.70;96161.78;10311815;28;97602;-68
2022/06/05 15:26:47;;;;;;;3.20;0.73;;;;;;;30.00;33.27;96161.69;10321843;28;97401;-67
2022/06/05 15:32:00;;;;;;;1.58;0.55;;;;;;;31.34;32.10;96180.72;10317309;28;97533;-68
2022/06/05 15:37:17;;;;;;;1.20;0.65;;;;;;;29.91;34.19;96183.00;10316331;28;97199;-67
2022/06/05 15:42:31;;;;;;;0.82;0.70;;;;;;;30.19;35.18;96188.09;10316963;28;98880;-67
2022/06/05 15:47:48;;;;;;;0.55;0.40;;;;;;;29.01;36.51;96180.03;10317805;28;98404;-68
2022/06/05 15:53:08;;;;;;;0.85;0.40;;;;;;;27.90;37.78;96209.63;10318660;28;98774;-70
2022/06/05 15:58:45;;;;;;;0.40;0.40;;;;;;;27.88;37.58;96207.22;10319037;28;97123;-67
2022/06/05 16:03:55;;;;;;;0.55;0.45;;;;;;;29.03;36.87;96189.44;10318921;28;98631;-67
2022/06/05 16:09:06;;;;;;;1.58;0.70;;;;;;;29.49;36.93;96175.22;10317719;28;99141;-67
2022/06/05 16:14:35;;;;;;;2.55;0.82;;;;;;;29.95;35.95;96177.88;10311436;28;97688;-67
2022/06/05 16:19:43;;;;;;;1.55;0.90;;;;;;;30.21;36.14;96186.72;10312716;28;97332;-67
2022/06/05 16:24:50;;;;;;;1.13;0.90;;;;;;;32.05;34.17;96193.91;10312240;28;96802;-67
2022/06/05 16:29:56;;;;;;;2.10;0.82;;;;;;;33.12;31.98;96199.94;10311749;28;98670;-67
2022/06/05 16:40:26;;;;;;;2.35;1.00;;;;;;;33.93;30.01;96212.44;10295204;28;98994;-67
2022/06/05 16:45:31;;;;;;;1.60;0.90;;;;;;;35.01;28.53;96224.75;10293865;28;96915;-70
2022/06/05 16:50:37;;;;;;;1.13;0.80;;;;;;;35.46;28.55;96232.97;10303978;28;97078;-70
2022/06/05 16:55:59;;;;;;;1.23;0.90;;;;;;;35.49;28.10;96236.97;10293959;28;98879;-70
2022/06/05 17:01:06;;;;;;;1.88;0.90;;;;;;;35.25;28.35;96223.69;10283754;28;96975;-70
2022/06/05 17:06:37;;;;;;;1.63;1.05;;;;;;;35.65;28.19;96226.53;10279957;28;99125;-70
2022/06/05 17:11:48;;;;;;;1.75;0.85;;;;;;;35.98;27.50;96229.00;10281997;28;97087;-68
2022/06/05 17:17:11;;;;;;;1.50;1.10;;;;;;;36.31;27.35;96236.88;10305529;28;99517;-70
2022/06/05 17:22:21;;;;;;;2.08;1.25;;;;;;;36.03;26.99;96226.97;10319908;28;97581;-68
2022/06/05 17:27:49;;;;;;;2.10;1.15;;;;;;;35.57;27.49;96236.25;10318568;28;97312;-70
2022/06/05 17:33:05;;;;;;;1.30;0.85;;;;;;;34.85;27.52;96256.03;10313426;28;98066;-68
2022/06/05 17:38:49;;;;;;;3.25;1.20;;;;;;;32.18;30.71;96258.09;10316900;28;99239;-69
2022/06/05 17:44:03;;;;;;;2.42;1.17;;;;;;;31.85;30.62;96244.34;10304431;28;98875;-68
2022/06/05 17:49:30;;;;;;;2.72;1.17;;;;;;;31.55;31.35;96238.09;10323897;28;97095;-69
2022/06/05 17:54:36;;;;;;;1.90;1.30;;;;;;;31.34;31.62;96240.09;10322668;28;97099;-68
2022/06/05 17:59:43;;;;;;;5.57;1.40;;;;;;;30.37;33.10;96244.06;10324230;28;98690;-69
2022/06/05 18:04:55;;;;;;;1.65;1.05;;;;;;;28.58;34.69;96247.34;10322063;28;98869;-68
2022/06/05 18:09:58;;;;;;;2.38;1.40;;;;;;;27.39;36.55;96248.41;10313510;28;98909;-68
2022/06/05 18:15:08;;;;;;;2.53;1.10;;;;;;;26.83;38.13;96240.59;10338332;28;97097;-68
2022/06/05 18:20:18;;;;;;;2.17;1.30;;;;;;;26.65;38.27;96239.00;10321722;28;96822;-72
2022/06/05 18:25:49;;;;;;;1.90;1.40;;;;;;;26.30;38.11;96242.88;10316927;28;97418;-70
2022/06/05 18:31:10;;;;;;;2.05;1.55;;;;;;;26.05;38.73;96240.63;10143555;28;98179;-71
2022/06/05 18:41:43;;;;;;;3.67;1.58;;;;;;;25.10;40.64;96248.44;10146625;28;97487;-71
2022/06/05 18:46:48;;;;;;;2.70;1.38;;;;;;;24.81;40.97;96253.75;10147569;28;98848;-70
2022/06/05 18:51:56;;;;;;;4.00;1.75;;;;;;;24.24;41.91;96254.44;10144469;28;96923;-69
2022/06/05 18:57:03;;;;;;;2.85;1.67;;;;;;;23.66;42.41;96264.03;10141895;28;98591;-70
2022/06/05 19:02:15;;;;;;;2.67;1.83;;;;;;;23.28;43.04;96275.91;10154028;28;96970;-69
2022/06/05 19:07:31;;;;;;;1.90;1.63;;;;;;;23.26;44.37;96279.81;10302877;28;98730;-69
2022/06/05 19:12:41;;;;;;;3.10;1.60;;;;;;;23.23;44.83;96283.72;10316690;28;99456;-69
2022/06/05 19:17:49;;;;;;;2.30;1.58;;;;;;;23.09;45.10;96285.75;10322427;28;98488;-67
2022/06/05 19:22:56;;;;;;;2.17;1.60;;;;;;;22.88;45.60;96288.91;10321773;28;96723;-69
2022/06/05 19:28:02;;;;;;;3.20;1.90;;;;;;;22.65;46.50;96290.41;10322896;28;100982;-68
2022/06/05 19:33:11;;;;;;;2.63;1.70;;;;;;;22.46;47.04;96308.25;10322405;28;96782;-68
2022/06/05 19:38:28;;;;;;;2.55;1.77;;;;;;;22.29;47.55;96312.47;10313790;28;97491;-68
2022/06/05 19:43:37;;;;;;;2.80;2.00;;;;;;;22.09;47.42;96334.75;10320589;28;96763;-68
2022/06/05 19:48:43;;;;;;;4.55;3.20;;;;;;;22.04;47.65;96327.44;10317705;28;99337;-68
2022/06/05 19:53:51;;;;;;;3.00;2.30;;;;;;;22.05;48.02;96330.91;10318901;28;98709;-70
2022/06/05 19:58:58;;;;;;;5.20;3.70;;;;;;;22.01;48.37;96327.06;10309719;28;99192;-68
2022/06/05 20:04:11;;;;;;;4.45;3.60;;;;;;;21.96;48.65;96334.88;10313737;28;97583;-65
2022/06/05 20:09:24;;;;;;;4.03;2.05;;;;;;;21.93;48.85;96351.25;10316292;28;97231;-72
2022/06/05 20:14:29;;;;;;;2.30;1.80;;;;;;;21.87;49.10;96351.09;10327589;28;97506;-68
2022/06/05 20:19:44;;;;;;;3.33;1.70;;;;;;;21.94;48.76;96352.91;10311914;28;103856;-72
2022/06/05 20:24:48;;;;;;;2.10;1.73;;;;;;;21.86;48.86;96346.81;10316743;28;98493;-70
2022/06/05 20:29:55;;;;;;;2.25;1.75;;;;;;;21.84;49.65;96351.53;10314176;28;96883;-70
2022/06/05 20:34:59;;;;;;;2.50;1.80;;;;;;;21.66;50.15;96356.78;10311655;28;96927;-70
2022/06/05 20:40:07;;;;;;;;;;;;;;;21.48;49.67;96354.81;10311198;28;97968;-67
2022/06/05 20:45:19;;;;;;;3.60;1.88;;;;;;;21.33;51.00;96341.81;10309157;28;96955;-70
2022/06/05 20:50:26;;;;;;;2.97;2.30;;;;;;;21.06;52.59;96339.28;10321571;28;98583;-70
2022/06/05 20:55:30;;;;;;;3.90;2.40;;;;;;;21.12;52.51;96341.09;10312850;28;96832;-72
2022/06/05 21:00:38;;;;;;;5.57;2.35;;;;;;;21.15;52.55;96349.69;10313558;28;98961;-69
2022/06/05 21:21:50;;;;;;;3.30;2.20;;;;;;;20.89;53.67;96365.53;10307597;28;98492;-71
2022/06/05 21:27:00;;;;;;;2.40;1.90;;;;;;;20.68;55.11;96365.75;10315996;28;98826;-71
2022/06/05 21:32:07;;;;;;;3.17;2.10;;;;;;;20.62;54.65;96362.09;10318999;28;96810;-70
2022/06/05 21:37:11;;;;;;;10.52;8.15;;;;;;;20.48;54.47;96366.59;10320023;28;98673;-70
2022/06/05 21:42:19;;;;;;;4.45;2.22;;;;;;;20.44;54.84;96362.72;10310933;28;97311;-70
2022/06/05 21:47:23;;;;;;;3.17;1.50;;;;;;;20.48;54.96;96365.81;10312639;28;97211;-70
2022/06/05 21:52:35;;;;;;;2.47;1.73;;;;;;;20.44;54.01;96361.91;10314378;28;96830;-68
2022/06/05 21:57:42;;;;;;;3.97;1.80;;;;;;;20.52;53.80;96356.41;10311828;28;97046;-71
2022/06/05 22:02:44;;;;;;;2.85;2.00;;;;;;;20.52;53.85;96356.41;10312899;28;96861;-70
2022/06/05 22:07:50;;;;;;;2.53;1.80;;;;;;;20.61;53.86;96360.44;10317401;28;96789;-69
2022/06/05 22:12:53;;;;;;;4.03;2.30;;;;;;;20.55;53.55;96353.34;10312936;28;98062;-70
2022/06/05 22:17:57;;;;;;;4.40;2.03;;;;;;;20.47;54.23;96348.25;10323062;28;96855;-70
2022/06/05 22:23:04;;;;;;;2.75;2.08;;;;;;;20.32;55.41;96361.72;10325416;28;98263;-70
2022/06/05 22:28:08;;;;;;;4.45;1.95;;;;;;;20.19;55.61;96367.88;10327816;28;97138;-69
2022/06/05 22:33:12;;;;;;;3.10;2.58;;;;;;;20.06;56.42;96363.41;10314844;28;96795;-70
2022/06/05 22:38:17;;;;;;;4.73;2.60;;;;;;;20.03;55.88;96373.59;10330282;28;96987;-72
2022/06/05 22:43:20;;;;;;;3.45;2.67;;;;;;;20.02;56.97;96364.00;10323181;28;97713;-69
2022/06/05 22:48:22;;;;;;;4.22;2.97;;;;;;;19.92;56.93;96364.41;10329049;28;97556;-71
2022/06/05 22:53:28;;;;;;;4.95;2.40;;;;;;;19.86;57.13;96358.06;10328053;28;98359;-70
2022/06/05 22:58:31;;;;;;;4.28;3.30;;;;;;;19.67;57.89;96364.16;10310806;28;97779;-70
2022/06/05 23:03:34;;;;;;;2.90;2.05;;;;;;;19.39;57.85;96365.13;10320613;28;97209;-70
2022/06/05 23:08:39;;;;;;;3.78;2.83;;;;;;;19.34;58.58;96365.69;10314404;28;97694;-68
2022/06/05 23:13:42;;;;;;;4.13;2.35;;;;;;;19.20;59.19;96367.50;10304399;28;97128;-71
2022/06/05 23:24:08;;;;;;;4.47;2.10;;;;;;;19.19;59.21;96371.19;10321648;28;98825;-72
2022/06/05 23:29:11;;;;;;;3.65;2.42;;;;;;;19.19;58.88;96368.53;10310221;28;97562;-74
2022/06/05 23:34:18;;;;;;;4.00;2.35;;;;;;;19.06;60.56;96361.34;10303547;28;96841;-69
2022/06/05 23:39:23;;;;;;;3.30;1.90;;;;;;;18.59;61.52;96351.53;10301204;28;97498;-69
2022/06/05 23:44:26;;;;;;;3.33;2.65;;;;;;;18.23;62.30;96353.34;10306201;28;97640;-68
2022/06/05 23:49:29;;;;;;;5.43;2.33;;;;;;;17.97;62.38;96346.03;10317601;28;97153;-70
2022/06/05 23:54:34;;;;;;;5.67;2.33;;;;;;;17.81;63.68;96346.28;10311435;28;98079;-69
2022/06/05 23:59:37;;;;;;;;;;;;;;;17.73;61.98;96350.69;10322209;28;97345;-70
